sensor_id;sensor_type;location;lat;lon;timestamp;temperature;humidity
63960;DHT22;50136;51.374;0.096;2022-10-31T00:04:38;11.50;99.90
63960;DHT22;50136;51.374;0.096;2022-10-31T00:14:41;11.40;99.90
63960;DHT22;50136;51.374;0.096;2022-10-31T00:24:43;11.40;99.90
63960;DHT22;50136;51.374;0.096;2022-10-31T00:34:46;11.20;99.90
63960;DHT22;50136;51.374;0.096;2022-10-31T00:44:48;11.10;99.90
63960;DHT22;50136;51.374;0.096;2022-10-31T00:54:51;11.10;99.90
63960;DHT22;50136;51.374;0.096;2022-10-31T01:04:53;11.00;99.90
63960;DHT22;50136;51.374;0.096;2022-10-31T01:14:57;11.10;99.90
63960;DHT22;50136;51.374;0.096;2022-10-31T01:24:59;11.00;99.90
63960;DHT22;50136;51.374;0.096;2022-10-31T01:35:02;11.00;99.90
63960;DHT22;50136;51.374;0.096;2022-10-31T01:45:09;11.00;99.90
63960;DHT22;50136;51.374;0.096;2022-10-31T01:55:16;10.80;99.90
63960;DHT22;50136;51.374;0.096;2022-10-31T02:05:21;10.90;99.90
63960;DHT22;50136;51.374;0.096;2022-10-31T02:15:28;11.00;99.90
63960;DHT22;50136;51.374;0.096;2022-10-31T02:25:46;11.20;99.90
63960;DHT22;50136;51.374;0.096;2022-10-31T02:36:00;11.20;99.90
63960;DHT22;50136;51.374;0.096;2022-10-31T02:46:10;11.20;99.90
63960;DHT22;50136;51.374;0.096;2022-10-31T02:56:18;11.10;99.90
63960;DHT22;50136;51.374;0.096;2022-10-31T03:06:23;11.00;99.90
63960;DHT22;50136;51.374;0.096;2022-10-31T03:16:33;11.10;99.90
63960;DHT22;50136;51.374;0.096;2022-10-31T03:26:41;11.20;99.90
63960;DHT22;50136;51.374;0.096;2022-10-31T03:36:47;11.20;99.90
63960;DHT22;50136;51.374;0.096;2022-10-31T03:46:50;11.20;99.90
63960;DHT22;50136;51.374;0.096;2022-10-31T03:56:55;11.40;99.90
63960;DHT22;50136;51.374;0.096;2022-10-31T04:07:00;11.30;99.90
63960;DHT22;50136;51.374;0.096;2022-10-31T04:17:08;11.10;99.90
63960;DHT22;50136;51.374;0.096;2022-10-31T04:27:11;11.00;99.90
63960;DHT22;50136;51.374;0.096;2022-10-31T04:37:14;10.80;99.90
63960;DHT22;50136;51.374;0.096;2022-10-31T04:47:16;10.90;99.90
63960;DHT22;50136;51.374;0.096;2022-10-31T04:57:19;10.80;99.90
63960;DHT22;50136;51.374;0.096;2022-10-31T05:07:21;11.00;99.90
63960;DHT22;50136;51.374;0.096;2022-10-31T05:17:27;11.00;99.90
63960;DHT22;50136;51.374;0.096;2022-10-31T05:27:29;11.10;99.90
63960;DHT22;50136;51.374;0.096;2022-10-31T05:37:32;11.20;99.90
63960;DHT22;50136;51.374;0.096;2022-10-31T05:47:34;11.20;99.90
63960;DHT22;50136;51.374;0.096;2022-10-31T05:57:37;11.10;99.90
63960;DHT22;50136;51.374;0.096;2022-10-31T06:07:39;11.10;99.90
63960;DHT22;50136;51.374;0.096;2022-10-31T06:17:43;11.10;99.90
63960;DHT22;50136;51.374;0.096;2022-10-31T06:27:45;11.10;99.90
63960;DHT22;50136;51.374;0.096;2022-10-31T06:37:52;11.20;99.90
63960;DHT22;50136;51.374;0.096;2022-10-31T06:47:55;11.20;99.90
63960;DHT22;50136;51.374;0.096;2022-10-31T06:58:19;11.10;99.90
63960;DHT22;50136;51.374;0.096;2022-10-31T07:08:21;11.10;99.90
63960;DHT22;50136;51.374;0.096;2022-10-31T07:18:24;11.20;99.90
63960;DHT22;50136;51.374;0.096;2022-10-31T07:28:26;11.30;99.90
63960;DHT22;50136;51.374;0.096;2022-10-31T07:38:29;11.20;99.90
63960;DHT22;50136;51.374;0.096;2022-10-31T07:48:31;11.40;99.90
63960;DHT22;50136;51.374;0.096;2022-10-31T07:58:35;11.60;99.90
63960;DHT22;50136;51.374;0.096;2022-10-31T08:08:37;12.10;99.90
63960;DHT22;50136;51.374;0.096;2022-10-31T08:18:40;12.50;99.90
63960;DHT22;50136;51.374;0.096;2022-10-31T08:28:42;12.80;99.90
63960;DHT22;50136;51.374;0.096;2022-10-31T08:38:46;13.20;99.90
63960;DHT22;50136;51.374;0.096;2022-10-31T08:48:48;13.90;99.90
63960;DHT22;50136;51.374;0.096;2022-10-31T08:58:52;16.20;99.90
63960;DHT22;50136;51.374;0.096;2022-10-31T09:08:54;17.20;99.90
63960;DHT22;50136;51.374;0.096;2022-10-31T09:18:58;18.30;99.90
63960;DHT22;50136;51.374;0.096;2022-10-31T09:29:00;19.40;99.90
63960;DHT22;50136;51.374;0.096;2022-10-31T09:39:03;19.70;99.90
63960;DHT22;50136;51.374;0.096;2022-10-31T09:49:28;20.40;99.90
63960;DHT22;50136;51.374;0.096;2022-10-31T09:59:35;19.00;99.90
63960;DHT22;50136;51.374;0.096;2022-10-31T10:09:37;19.10;99.90
63960;DHT22;50136;51.374;0.096;2022-10-31T10:19:58;18.30;99.90
63960;DHT22;50136;51.374;0.096;2022-10-31T10:30:13;17.60;99.90
63960;DHT22;50136;51.374;0.096;2022-10-31T10:40:19;16.90;99.90
63960;DHT22;50136;51.374;0.096;2022-10-31T11:01:26;16.40;99.90
63960;DHT22;50136;51.374;0.096;2022-10-31T11:11:29;16.50;99.90
63960;DHT22;50136;51.374;0.096;2022-10-31T11:21:33;16.30;99.90
63960;DHT22;50136;51.374;0.096;2022-10-31T11:31:35;16.30;99.90
63960;DHT22;50136;51.374;0.096;2022-10-31T11:41:38;16.30;99.90
63960;DHT22;50136;51.374;0.096;2022-10-31T11:51:40;16.60;99.90
63960;DHT22;50136;51.374;0.096;2022-10-31T12:01:49;16.60;99.90
63960;DHT22;50136;51.374;0.096;2022-10-31T12:22:21;16.60;99.90
63960;DHT22;50136;51.374;0.096;2022-10-31T12:32:35;16.50;99.90
63960;DHT22;50136;51.374;0.096;2022-10-31T12:42:50;16.30;99.90
63960;DHT22;50136;51.374;0.096;2022-10-31T12:53:02;16.30;99.90
63960;DHT22;50136;51.374;0.096;2022-10-31T13:03:23;16.30;99.90
63960;DHT22;50136;51.374;0.096;2022-10-31T13:13:30;16.30;99.90
63960;DHT22;50136;51.374;0.096;2022-10-31T13:23:37;16.30;99.90
63960;DHT22;50136;51.374;0.096;2022-10-31T13:33:58;16.40;99.90
63960;DHT22;50136;51.374;0.096;2022-10-31T13:44:13;16.30;99.90
63960;DHT22;50136;51.374;0.096;2022-10-31T13:54:22;16.30;99.90
63960;DHT22;50136;51.374;0.096;2022-10-31T14:04:28;16.10;99.90
63960;DHT22;50136;51.374;0.096;2022-10-31T14:14:39;16.20;99.90
63960;DHT22;50136;51.374;0.096;2022-10-31T14:24:45;16.10;99.90
63960;DHT22;50136;51.374;0.096;2022-10-31T14:34:52;15.90;99.90
63960;DHT22;50136;51.374;0.096;2022-10-31T14:45:08;15.80;99.90
63960;DHT22;50136;51.374;0.096;2022-10-31T14:55:13;15.70;99.90
63960;DHT22;50136;51.374;0.096;2022-10-31T15:05:17;15.70;99.90
63960;DHT22;50136;51.374;0.096;2022-10-31T15:15:21;15.80;99.90
63960;DHT22;50136;51.374;0.096;2022-10-31T15:25:28;15.70;99.90
63960;DHT22;50136;51.374;0.096;2022-10-31T15:35:31;15.60;99.90
63960;DHT22;50136;51.374;0.096;2022-10-31T15:45:35;15.40;99.90
63960;DHT22;50136;51.374;0.096;2022-10-31T15:55:46;15.40;99.90
63960;DHT22;50136;51.374;0.096;2022-10-31T16:05:52;15.30;99.90
63960;DHT22;50136;51.374;0.096;2022-10-31T16:15:56;15.20;99.90
63960;DHT22;50136;51.374;0.096;2022-10-31T16:26:20;15.10;99.90
63960;DHT22;50136;51.374;0.096;2022-10-31T16:47:26;15.00;99.90
63960;DHT22;50136;51.374;0.096;2022-10-31T16:57:30;15.10;99.90
63960;DHT22;50136;51.374;0.096;2022-10-31T17:07:34;15.10;99.90
63960;DHT22;50136;51.374;0.096;2022-10-31T17:17:36;15.20;99.90
63960;DHT22;50136;51.374;0.096;2022-10-31T17:27:54;15.20;99.90
63960;DHT22;50136;51.374;0.096;2022-10-31T17:37:56;14.80;99.90
63960;DHT22;50136;51.374;0.096;2022-10-31T17:48:00;14.50;99.90
63960;DHT22;50136;51.374;0.096;2022-10-31T17:58:04;14.40;99.90
63960;DHT22;50136;51.374;0.096;2022-10-31T18:08:08;14.40;99.90
63960;DHT22;50136;51.374;0.096;2022-10-31T18:18:10;14.30;99.90
63960;DHT22;50136;51.374;0.096;2022-10-31T18:28:13;14.40;99.90
63960;DHT22;50136;51.374;0.096;2022-10-31T18:38:15;14.30;99.90
63960;DHT22;50136;51.374;0.096;2022-10-31T18:48:31;14.40;99.90
63960;DHT22;50136;51.374;0.096;2022-10-31T18:58:33;14.50;99.90
63960;DHT22;50136;51.374;0.096;2022-10-31T19:08:37;14.60;99.90
63960;DHT22;50136;51.374;0.096;2022-10-31T19:18:40;14.70;99.90
63960;DHT22;50136;51.374;0.096;2022-10-31T19:28:44;14.80;99.90
63960;DHT22;50136;51.374;0.096;2022-10-31T19:38:47;14.80;99.90
63960;DHT22;50136;51.374;0.096;2022-10-31T19:48:51;14.90;99.90
63960;DHT22;50136;51.374;0.096;2022-10-31T19:58:53;15.00;99.90
63960;DHT22;50136;51.374;0.096;2022-10-31T20:08:56;15.00;99.90
63960;DHT22;50136;51.374;0.096;2022-10-31T20:18:59;15.10;99.90
63960;DHT22;50136;51.374;0.096;2022-10-31T20:29:02;15.20;99.90
63960;DHT22;50136;51.374;0.096;2022-10-31T20:39:07;15.30;99.90
63960;DHT22;50136;51.374;0.096;2022-10-31T20:49:21;15.30;99.90
63960;DHT22;50136;51.374;0.096;2022-10-31T20:59:24;15.30;99.90
63960;DHT22;50136;51.374;0.096;2022-10-31T21:09:27;15.20;99.90
63960;DHT22;50136;51.374;0.096;2022-10-31T21:19:29;15.30;99.90
63960;DHT22;50136;51.374;0.096;2022-10-31T21:29:32;15.30;99.90
63960;DHT22;50136;51.374;0.096;2022-10-31T21:39:34;15.20;99.90
63960;DHT22;50136;51.374;0.096;2022-10-31T21:49:37;15.10;99.90
63960;DHT22;50136;51.374;0.096;2022-10-31T21:59:40;14.90;99.90
63960;DHT22;50136;51.374;0.096;2022-10-31T22:09:44;14.90;99.90
63960;DHT22;50136;51.374;0.096;2022-10-31T22:19:46;15.00;99.90
63960;DHT22;50136;51.374;0.096;2022-10-31T22:29:49;14.90;99.90
63960;DHT22;50136;51.374;0.096;2022-10-31T22:39:57;14.90;99.90
63960;DHT22;50136;51.374;0.096;2022-10-31T22:50:00;14.80;99.90
63960;DHT22;50136;51.374;0.096;2022-10-31T23:00:03;14.60;99.90
63960;DHT22;50136;51.374;0.096;2022-10-31T23:10:08;14.50;99.90
63960;DHT22;50136;51.374;0.096;2022-10-31T23:20:10;14.40;99.90
63960;DHT22;50136;51.374;0.096;2022-10-31T23:30:13;14.10;99.90
63960;DHT22;50136;51.374;0.096;2022-10-31T23:40:15;13.70;99.90
63960;DHT22;50136;51.374;0.096;2022-10-31T23:50:18;13.60;99.90
